sensor_id;sensor_type;location;lat;lon;timestamp;temperature;humidity
83808;SHT31;73824;40.292;17.998;2024-02-26T00:00:28;12.19;92.90
83808;SHT31;73824;40.292;17.998;2024-02-26T00:02:54;12.24;92.90
83808;SHT31;73824;40.292;17.998;2024-02-26T00:05:20;12.26;92.73
83808;SHT31;73824;40.292;17.998;2024-02-26T00:07:45;12.41;92.51
83808;SHT31;73824;40.292;17.998;2024-02-26T00:10:13;12.40;92.48
83808;SHT31;73824;40.292;17.998;2024-02-26T00:12:38;12.43;92.55
83808;SHT31;73824;40.292;17.998;2024-02-26T00:15:05;12.41;92.66
83808;SHT31;73824;40.292;17.998;2024-02-26T00:17:31;12.47;92.64
83808;SHT31;73824;40.292;17.998;2024-02-26T00:19:56;12.41;92.72
83808;SHT31;73824;40.292;17.998;2024-02-26T00:22:22;12.44;92.79
83808;SHT31;73824;40.292;17.998;2024-02-26T00:24:47;12.40;93.04
83808;SHT31;73824;40.292;17.998;2024-02-26T00:27:13;12.45;93.10
83808;SHT31;73824;40.292;17.998;2024-02-26T00:29:39;12.54;92.91
83808;SHT31;73824;40.292;17.998;2024-02-26T00:32:05;12.58;92.63
83808;SHT31;73824;40.292;17.998;2024-02-26T00:34:31;12.54;92.61
83808;SHT31;73824;40.292;17.998;2024-02-26T00:36:56;12.61;92.60
83808;SHT31;73824;40.292;17.998;2024-02-26T00:39:21;12.53;92.82
83808;SHT31;73824;40.292;17.998;2024-02-26T00:41:47;12.58;92.86
83808;SHT31;73824;40.292;17.998;2024-02-26T00:44:12;12.61;92.79
83808;SHT31;73824;40.292;17.998;2024-02-26T00:46:38;12.68;92.59
83808;SHT31;73824;40.292;17.998;2024-02-26T00:49:03;12.62;92.55
83808;SHT31;73824;40.292;17.998;2024-02-26T00:51:29;12.64;92.47
83808;SHT31;73824;40.292;17.998;2024-02-26T00:53:54;12.60;92.45
83808;SHT31;73824;40.292;17.998;2024-02-26T00:56:21;12.62;92.39
83808;SHT31;73824;40.292;17.998;2024-02-26T00:58:46;12.61;92.23
83808;SHT31;73824;40.292;17.998;2024-02-26T01:01:12;12.64;92.05
83808;SHT31;73824;40.292;17.998;2024-02-26T01:03:37;12.65;91.97
83808;SHT31;73824;40.292;17.998;2024-02-26T01:06:03;12.58;91.95
83808;SHT31;73824;40.292;17.998;2024-02-26T01:08:29;12.57;92.10
83808;SHT31;73824;40.292;17.998;2024-02-26T01:10:54;12.48;92.16
83808;SHT31;73824;40.292;17.998;2024-02-26T01:13:20;12.55;92.18
83808;SHT31;73824;40.292;17.998;2024-02-26T01:15:45;12.55;92.16
83808;SHT31;73824;40.292;17.998;2024-02-26T01:18:11;12.48;92.23
83808;SHT31;73824;40.292;17.998;2024-02-26T01:20:37;12.44;92.39
83808;SHT31;73824;40.292;17.998;2024-02-26T01:23:03;12.44;92.37
83808;SHT31;73824;40.292;17.998;2024-02-26T01:25:28;12.44;92.41
83808;SHT31;73824;40.292;17.998;2024-02-26T01:27:54;12.38;92.39
83808;SHT31;73824;40.292;17.998;2024-02-26T01:30:19;12.44;92.27
83808;SHT31;73824;40.292;17.998;2024-02-26T01:32:45;12.38;92.16
83808;SHT31;73824;40.292;17.998;2024-02-26T01:35:11;12.33;92.16
83808;SHT31;73824;40.292;17.998;2024-02-26T01:37:37;12.26;92.33
83808;SHT31;73824;40.292;17.998;2024-02-26T01:40:03;12.22;92.26
83808;SHT31;73824;40.292;17.998;2024-02-26T01:42:32;12.07;92.42
83808;SHT31;73824;40.292;17.998;2024-02-26T01:44:58;11.97;92.57
83808;SHT31;73824;40.292;17.998;2024-02-26T01:47:25;12.00;92.64
83808;SHT31;73824;40.292;17.998;2024-02-26T01:49:55;12.00;92.46
83808;SHT31;73824;40.292;17.998;2024-02-26T01:52:21;11.86;92.49
83808;SHT31;73824;40.292;17.998;2024-02-26T01:54:47;11.83;92.42
83808;SHT31;73824;40.292;17.998;2024-02-26T01:57:14;11.79;92.66
83808;SHT31;73824;40.292;17.998;2024-02-26T01:59:40;11.76;92.72
83808;SHT31;73824;40.292;17.998;2024-02-26T02:02:08;11.71;92.67
83808;SHT31;73824;40.292;17.998;2024-02-26T02:04:36;11.75;92.70
83808;SHT31;73824;40.292;17.998;2024-02-26T02:07:02;11.66;92.74
83808;SHT31;73824;40.292;17.998;2024-02-26T02:09:28;11.66;92.71
83808;SHT31;73824;40.292;17.998;2024-02-26T02:11:57;11.54;92.74
83808;SHT31;73824;40.292;17.998;2024-02-26T02:14:24;11.52;92.79
83808;SHT31;73824;40.292;17.998;2024-02-26T02:16:50;11.44;92.93
83808;SHT31;73824;40.292;17.998;2024-02-26T02:19:15;11.39;93.09
83808;SHT31;73824;40.292;17.998;2024-02-26T02:21:41;11.38;93.01
83808;SHT31;73824;40.292;17.998;2024-02-26T02:24:06;11.37;93.01
83808;SHT31;73824;40.292;17.998;2024-02-26T02:26:32;11.32;93.09
83808;SHT31;73824;40.292;17.998;2024-02-26T02:28:58;11.34;93.07
83808;SHT31;73824;40.292;17.998;2024-02-26T02:31:24;11.37;92.86
83808;SHT31;73824;40.292;17.998;2024-02-26T02:33:50;11.35;92.98
83808;SHT31;73824;40.292;17.998;2024-02-26T02:36:15;11.35;92.95
83808;SHT31;73824;40.292;17.998;2024-02-26T02:38:51;11.31;92.95
83808;SHT31;73824;40.292;17.998;2024-02-26T02:41:17;11.31;92.88
83808;SHT31;73824;40.292;17.998;2024-02-26T02:43:42;11.27;92.85
83808;SHT31;73824;40.292;17.998;2024-02-26T02:46:08;11.31;92.77
83808;SHT31;73824;40.292;17.998;2024-02-26T02:48:33;11.34;92.81
83808;SHT31;73824;40.292;17.998;2024-02-26T02:50:59;11.37;92.72
83808;SHT31;73824;40.292;17.998;2024-02-26T02:53:24;11.31;92.67
83808;SHT31;73824;40.292;17.998;2024-02-26T02:55:50;11.37;92.65
83808;SHT31;73824;40.292;17.998;2024-02-26T02:58:15;11.34;92.54
83808;SHT31;73824;40.292;17.998;2024-02-26T03:00:41;11.26;92.62
83808;SHT31;73824;40.292;17.998;2024-02-26T03:03:06;11.16;92.95
83808;SHT31;73824;40.292;17.998;2024-02-26T03:05:32;11.21;93.09
83808;SHT31;73824;40.292;17.998;2024-02-26T03:07:58;11.24;92.90
83808;SHT31;73824;40.292;17.998;2024-02-26T03:10:23;11.23;92.91
83808;SHT31;73824;40.292;17.998;2024-02-26T03:12:49;11.24;92.78
83808;SHT31;73824;40.292;17.998;2024-02-26T03:15:15;11.18;92.82
83808;SHT31;73824;40.292;17.998;2024-02-26T03:17:41;11.26;92.81
83808;SHT31;73824;40.292;17.998;2024-02-26T03:20:08;11.20;92.92
83808;SHT31;73824;40.292;17.998;2024-02-26T03:22:34;11.21;93.05
83808;SHT31;73824;40.292;17.998;2024-02-26T03:25:00;11.23;92.94
83808;SHT31;73824;40.292;17.998;2024-02-26T03:27:25;11.27;92.93
83808;SHT31;73824;40.292;17.998;2024-02-26T03:29:51;11.34;92.81
83808;SHT31;73824;40.292;17.998;2024-02-26T03:32:18;11.34;92.84
83808;SHT31;73824;40.292;17.998;2024-02-26T03:34:43;11.31;92.80
83808;SHT31;73824;40.292;17.998;2024-02-26T03:37:11;11.31;92.82
83808;SHT31;73824;40.292;17.998;2024-02-26T03:39:37;11.28;92.96
83808;SHT31;73824;40.292;17.998;2024-02-26T03:42:03;11.28;93.08
83808;SHT31;73824;40.292;17.998;2024-02-26T03:44:28;11.31;93.20
83808;SHT31;73824;40.292;17.998;2024-02-26T03:46:54;11.35;92.94
83808;SHT31;73824;40.292;17.998;2024-02-26T03:49:21;11.26;93.17
83808;SHT31;73824;40.292;17.998;2024-02-26T03:51:47;11.27;93.28
83808;SHT31;73824;40.292;17.998;2024-02-26T03:54:12;11.24;93.34
83808;SHT31;73824;40.292;17.998;2024-02-26T03:56:38;11.31;93.25
83808;SHT31;73824;40.292;17.998;2024-02-26T03:59:03;11.30;93.23
83808;SHT31;73824;40.292;17.998;2024-02-26T04:01:28;11.31;93.19
83808;SHT31;73824;40.292;17.998;2024-02-26T04:03:54;11.34;93.10
83808;SHT31;73824;40.292;17.998;2024-02-26T04:06:20;11.32;93.19
83808;SHT31;73824;40.292;17.998;2024-02-26T04:08:49;11.38;93.03
83808;SHT31;73824;40.292;17.998;2024-02-26T04:11:14;11.37;93.02
83808;SHT31;73824;40.292;17.998;2024-02-26T04:13:43;11.39;93.03
83808;SHT31;73824;40.292;17.998;2024-02-26T04:16:11;11.30;93.04
83808;SHT31;73824;40.292;17.998;2024-02-26T04:18:37;11.32;93.24
83808;SHT31;73824;40.292;17.998;2024-02-26T04:21:04;11.28;93.31
83808;SHT31;73824;40.292;17.998;2024-02-26T04:23:31;11.27;93.38
83808;SHT31;73824;40.292;17.998;2024-02-26T04:25:56;11.32;93.42
83808;SHT31;73824;40.292;17.998;2024-02-26T04:28:22;11.28;93.40
83808;SHT31;73824;40.292;17.998;2024-02-26T04:30:50;11.34;93.24
83808;SHT31;73824;40.292;17.998;2024-02-26T04:33:16;11.32;93.16
83808;SHT31;73824;40.292;17.998;2024-02-26T04:35:42;11.28;93.17
83808;SHT31;73824;40.292;17.998;2024-02-26T04:38:07;11.23;93.34
83808;SHT31;73824;40.292;17.998;2024-02-26T04:40:33;11.28;93.36
83808;SHT31;73824;40.292;17.998;2024-02-26T04:42:59;11.18;93.45
83808;SHT31;73824;40.292;17.998;2024-02-26T04:45:24;11.21;93.51
83808;SHT31;73824;40.292;17.998;2024-02-26T04:47:50;11.21;93.50
83808;SHT31;73824;40.292;17.998;2024-02-26T04:50:15;11.21;93.43
83808;SHT31;73824;40.292;17.998;2024-02-26T04:52:41;11.17;93.52
83808;SHT31;73824;40.292;17.998;2024-02-26T04:55:07;11.23;93.48
83808;SHT31;73824;40.292;17.998;2024-02-26T04:57:33;11.17;93.47
83808;SHT31;73824;40.292;17.998;2024-02-26T04:59:58;11.10;93.56
83808;SHT31;73824;40.292;17.998;2024-02-26T05:02:24;11.11;93.57
83808;SHT31;73824;40.292;17.998;2024-02-26T05:04:50;11.07;93.67
83808;SHT31;73824;40.292;17.998;2024-02-26T05:07:15;11.00;93.81
83808;SHT31;73824;40.292;17.998;2024-02-26T05:09:43;11.00;93.87
83808;SHT31;73824;40.292;17.998;2024-02-26T05:12:09;11.04;93.84
83808;SHT31;73824;40.292;17.998;2024-02-26T05:14:34;11.04;93.86
83808;SHT31;73824;40.292;17.998;2024-02-26T05:17:00;11.01;93.89
83808;SHT31;73824;40.292;17.998;2024-02-26T05:19:26;11.00;93.88
83808;SHT31;73824;40.292;17.998;2024-02-26T05:21:51;10.96;93.93
83808;SHT31;73824;40.292;17.998;2024-02-26T05:24:17;10.88;94.00
83808;SHT31;73824;40.292;17.998;2024-02-26T05:26:45;10.97;94.07
83808;SHT31;73824;40.292;17.998;2024-02-26T05:29:11;11.00;93.96
83808;SHT31;73824;40.292;17.998;2024-02-26T05:31:36;10.99;93.99
83808;SHT31;73824;40.292;17.998;2024-02-26T05:34:02;10.99;94.00
83808;SHT31;73824;40.292;17.998;2024-02-26T05:36:27;10.97;94.08
83808;SHT31;73824;40.292;17.998;2024-02-26T05:38:58;11.01;94.10
83808;SHT31;73824;40.292;17.998;2024-02-26T05:41:24;11.01;94.08
83808;SHT31;73824;40.292;17.998;2024-02-26T05:43:52;11.07;94.11
83808;SHT31;73824;40.292;17.998;2024-02-26T05:46:18;11.13;94.03
83808;SHT31;73824;40.292;17.998;2024-02-26T05:48:46;11.18;93.82
83808;SHT31;73824;40.292;17.998;2024-02-26T05:51:12;11.21;93.77
83808;SHT31;73824;40.292;17.998;2024-02-26T05:53:37;11.31;93.60
83808;SHT31;73824;40.292;17.998;2024-02-26T05:56:03;11.39;93.51
83808;SHT31;73824;40.292;17.998;2024-02-26T05:58:29;11.42;93.26
83808;SHT31;73824;40.292;17.998;2024-02-26T06:00:54;11.48;93.07
83808;SHT31;73824;40.292;17.998;2024-02-26T06:03:20;11.54;92.73
83808;SHT31;73824;40.292;17.998;2024-02-26T06:05:46;11.61;92.58
83808;SHT31;73824;40.292;17.998;2024-02-26T06:08:11;11.66;92.66
83808;SHT31;73824;40.292;17.998;2024-02-26T06:10:37;11.75;92.39
83808;SHT31;73824;40.292;17.998;2024-02-26T06:13:04;11.78;92.16
83808;SHT31;73824;40.292;17.998;2024-02-26T06:15:30;11.90;91.88
83808;SHT31;73824;40.292;17.998;2024-02-26T06:17:55;11.97;91.49
83808;SHT31;73824;40.292;17.998;2024-02-26T06:20:21;12.13;90.76
83808;SHT31;73824;40.292;17.998;2024-02-26T06:22:46;12.19;90.72
83808;SHT31;73824;40.292;17.998;2024-02-26T06:25:12;12.43;90.37
83808;SHT31;73824;40.292;17.998;2024-02-26T06:27:37;12.64;89.77
83808;SHT31;73824;40.292;17.998;2024-02-26T06:30:03;12.78;88.90
83808;SHT31;73824;40.292;17.998;2024-02-26T06:32:28;13.06;88.49
83808;SHT31;73824;40.292;17.998;2024-02-26T06:34:55;13.22;87.35
83808;SHT31;73824;40.292;17.998;2024-02-26T06:37:20;13.51;86.65
83808;SHT31;73824;40.292;17.998;2024-02-26T06:39:46;14.02;85.27
83808;SHT31;73824;40.292;17.998;2024-02-26T06:42:11;14.79;82.59
83808;SHT31;73824;40.292;17.998;2024-02-26T06:44:37;15.17;80.14
83808;SHT31;73824;40.292;17.998;2024-02-26T06:47:03;16.03;80.08
83808;SHT31;73824;40.292;17.998;2024-02-26T06:49:29;17.20;73.48
83808;SHT31;73824;40.292;17.998;2024-02-26T06:51:55;17.89;69.63
83808;SHT31;73824;40.292;17.998;2024-02-26T06:54:23;18.47;67.59
83808;SHT31;73824;40.292;17.998;2024-02-26T06:56:49;18.46;68.04
83808;SHT31;73824;40.292;17.998;2024-02-26T06:59:14;18.57;66.63
83808;SHT31;73824;40.292;17.998;2024-02-26T07:01:41;18.91;65.76
83808;SHT31;73824;40.292;17.998;2024-02-26T07:04:07;19.91;64.23
83808;SHT31;73824;40.292;17.998;2024-02-26T07:06:32;19.43;62.99
83808;SHT31;73824;40.292;17.998;2024-02-26T07:08:58;19.66;64.96
83808;SHT31;73824;40.292;17.998;2024-02-26T07:11:23;20.65;61.21
83808;SHT31;73824;40.292;17.998;2024-02-26T07:13:49;20.80;59.26
83808;SHT31;73824;40.292;17.998;2024-02-26T07:16:15;21.17;59.09
83808;SHT31;73824;40.292;17.998;2024-02-26T07:18:41;21.56;57.82
83808;SHT31;73824;40.292;17.998;2024-02-26T07:21:06;20.65;61.10
83808;SHT31;73824;40.292;17.998;2024-02-26T07:23:32;20.62;60.65
83808;SHT31;73824;40.292;17.998;2024-02-26T07:25:58;21.08;60.47
83808;SHT31;73824;40.292;17.998;2024-02-26T07:28:24;22.37;55.58
83808;SHT31;73824;40.292;17.998;2024-02-26T07:30:50;21.75;57.19
83808;SHT31;73824;40.292;17.998;2024-02-26T07:33:16;20.70;59.12
83808;SHT31;73824;40.292;17.998;2024-02-26T07:35:41;20.86;61.07
83808;SHT31;73824;40.292;17.998;2024-02-26T07:38:07;21.14;57.97
83808;SHT31;73824;40.292;17.998;2024-02-26T07:40:32;20.80;59.67
83808;SHT31;73824;40.292;17.998;2024-02-26T07:42:58;21.94;56.71
83808;SHT31;73824;40.292;17.998;2024-02-26T07:45:23;21.15;59.75
83808;SHT31;73824;40.292;17.998;2024-02-26T07:47:49;21.78;57.82
83808;SHT31;73824;40.292;17.998;2024-02-26T07:50:16;20.73;61.70
83808;SHT31;73824;40.292;17.998;2024-02-26T07:52:42;20.98;61.44
83808;SHT31;73824;40.292;17.998;2024-02-26T07:55:08;22.04;56.57
83808;SHT31;73824;40.292;17.998;2024-02-26T07:57:33;22.86;55.15
83808;SHT31;73824;40.292;17.998;2024-02-26T07:59:59;22.88;54.40
83808;SHT31;73824;40.292;17.998;2024-02-26T08:02:25;22.58;54.50
83808;SHT31;73824;40.292;17.998;2024-02-26T08:04:50;22.45;55.67
83808;SHT31;73824;40.292;17.998;2024-02-26T08:07:16;21.34;58.78
83808;SHT31;73824;40.292;17.998;2024-02-26T08:09:42;20.19;61.38
83808;SHT31;73824;40.292;17.998;2024-02-26T08:12:08;19.47;64.33
83808;SHT31;73824;40.292;17.998;2024-02-26T08:14:36;18.88;64.91
83808;SHT31;73824;40.292;17.998;2024-02-26T08:17:02;18.40;66.94
83808;SHT31;73824;40.292;17.998;2024-02-26T08:19:27;17.69;71.23
83808;SHT31;73824;40.292;17.998;2024-02-26T08:21:53;16.72;72.48
83808;SHT31;73824;40.292;17.998;2024-02-26T08:24:18;17.02;72.64
83808;SHT31;73824;40.292;17.998;2024-02-26T08:26:44;16.69;74.15
83808;SHT31;73824;40.292;17.998;2024-02-26T08:29:10;18.41;69.46
83808;SHT31;73824;40.292;17.998;2024-02-26T08:31:35;19.12;67.43
83808;SHT31;73824;40.292;17.998;2024-02-26T08:34:03;19.40;66.10
83808;SHT31;73824;40.292;17.998;2024-02-26T08:36:33;19.84;63.29
83808;SHT31;73824;40.292;17.998;2024-02-26T08:38:58;20.38;64.31
83808;SHT31;73824;40.292;17.998;2024-02-26T08:41:24;21.39;58.02
83808;SHT31;73824;40.292;17.998;2024-02-26T08:43:49;21.85;57.98
83808;SHT31;73824;40.292;17.998;2024-02-26T08:46:15;21.61;58.97
83808;SHT31;73824;40.292;17.998;2024-02-26T08:48:40;21.51;58.15
83808;SHT31;73824;40.292;17.998;2024-02-26T08:51:07;21.20;60.20
83808;SHT31;73824;40.292;17.998;2024-02-26T08:53:33;21.63;58.08
83808;SHT31;73824;40.292;17.998;2024-02-26T08:55:58;20.67;59.30
83808;SHT31;73824;40.292;17.998;2024-02-26T08:58:24;20.72;59.91
83808;SHT31;73824;40.292;17.998;2024-02-26T09:00:49;20.43;61.43
83808;SHT31;73824;40.292;17.998;2024-02-26T09:03:15;20.63;61.16
83808;SHT31;73824;40.292;17.998;2024-02-26T09:05:40;21.55;56.77
83808;SHT31;73824;40.292;17.998;2024-02-26T09:08:06;22.30;56.21
83808;SHT31;73824;40.292;17.998;2024-02-26T09:10:32;23.02;56.22
83808;SHT31;73824;40.292;17.998;2024-02-26T09:12:58;23.71;53.66
83808;SHT31;73824;40.292;17.998;2024-02-26T09:15:23;24.29;51.13
83808;SHT31;73824;40.292;17.998;2024-02-26T09:17:49;24.52;50.71
83808;SHT31;73824;40.292;17.998;2024-02-26T09:20:15;24.80;50.41
83808;SHT31;73824;40.292;17.998;2024-02-26T09:22:45;25.70;49.01
83808;SHT31;73824;40.292;17.998;2024-02-26T09:25:14;24.77;49.48
83808;SHT31;73824;40.292;17.998;2024-02-26T09:27:44;23.17;52.67
83808;SHT31;73824;40.292;17.998;2024-02-26T09:30:10;22.95;56.08
83808;SHT31;73824;40.292;17.998;2024-02-26T09:32:37;21.24;58.02
83808;SHT31;73824;40.292;17.998;2024-02-26T09:35:03;22.18;55.82
83808;SHT31;73824;40.292;17.998;2024-02-26T09:37:28;23.00;53.20
83808;SHT31;73824;40.292;17.998;2024-02-26T09:39:54;22.17;54.69
83808;SHT31;73824;40.292;17.998;2024-02-26T09:42:19;22.49;53.48
83808;SHT31;73824;40.292;17.998;2024-02-26T09:44:45;22.25;53.73
83808;SHT31;73824;40.292;17.998;2024-02-26T09:47:14;21.17;57.83
83808;SHT31;73824;40.292;17.998;2024-02-26T09:49:42;19.87;62.09
83808;SHT31;73824;40.292;17.998;2024-02-26T09:52:08;20.93;59.09
83808;SHT31;73824;40.292;17.998;2024-02-26T09:54:38;21.71;58.20
83808;SHT31;73824;40.292;17.998;2024-02-26T09:57:04;22.04;57.49
83808;SHT31;73824;40.292;17.998;2024-02-26T09:59:39;21.52;59.16
83808;SHT31;73824;40.292;17.998;2024-02-26T10:02:15;21.20;57.13
83808;SHT31;73824;40.292;17.998;2024-02-26T10:04:42;22.52;54.11
83808;SHT31;73824;40.292;17.998;2024-02-26T10:07:12;22.59;53.73
83808;SHT31;73824;40.292;17.998;2024-02-26T10:09:39;21.20;57.15
83808;SHT31;73824;40.292;17.998;2024-02-26T10:12:05;21.44;56.34
83808;SHT31;73824;40.292;17.998;2024-02-26T10:14:31;20.25;58.73
83808;SHT31;73824;40.292;17.998;2024-02-26T10:16:56;19.85;60.09
83808;SHT31;73824;40.292;17.998;2024-02-26T10:19:26;19.53;61.71
83808;SHT31;73824;40.292;17.998;2024-02-26T10:21:59;19.61;61.94
83808;SHT31;73824;40.292;17.998;2024-02-26T10:24:26;19.66;61.72
83808;SHT31;73824;40.292;17.998;2024-02-26T10:26:52;18.72;63.30
83808;SHT31;73824;40.292;17.998;2024-02-26T10:29:19;18.46;64.86
83808;SHT31;73824;40.292;17.998;2024-02-26T10:31:45;18.46;65.09
83808;SHT31;73824;40.292;17.998;2024-02-26T10:34:10;18.77;65.08
83808;SHT31;73824;40.292;17.998;2024-02-26T10:36:36;18.98;63.31
83808;SHT31;73824;40.292;17.998;2024-02-26T10:39:04;18.48;64.35
83808;SHT31;73824;40.292;17.998;2024-02-26T10:41:30;18.88;65.32
83808;SHT31;73824;40.292;17.998;2024-02-26T10:43:58;18.77;64.57
83808;SHT31;73824;40.292;17.998;2024-02-26T10:46:23;19.08;65.12
83808;SHT31;73824;40.292;17.998;2024-02-26T10:48:51;19.53;63.36
83808;SHT31;73824;40.292;17.998;2024-02-26T10:51:20;18.99;64.25
83808;SHT31;73824;40.292;17.998;2024-02-26T10:53:50;19.25;63.22
83808;SHT31;73824;40.292;17.998;2024-02-26T10:56:19;18.99;63.94
83808;SHT31;73824;40.292;17.998;2024-02-26T10:58:45;18.27;64.05
83808;SHT31;73824;40.292;17.998;2024-02-26T11:01:12;18.25;64.83
83808;SHT31;73824;40.292;17.998;2024-02-26T11:03:38;18.67;65.28
83808;SHT31;73824;40.292;17.998;2024-02-26T11:06:05;18.67;64.03
83808;SHT31;73824;40.292;17.998;2024-02-26T11:08:32;18.26;65.08
83808;SHT31;73824;40.292;17.998;2024-02-26T11:10:58;18.95;62.84
83808;SHT31;73824;40.292;17.998;2024-02-26T11:13:27;19.22;62.75
83808;SHT31;73824;40.292;17.998;2024-02-26T11:15:55;20.60;58.73
83808;SHT31;73824;40.292;17.998;2024-02-26T11:18:23;19.84;59.18
83808;SHT31;73824;40.292;17.998;2024-02-26T11:20:50;19.69;61.41
83808;SHT31;73824;40.292;17.998;2024-02-26T11:23:16;20.12;59.69
83808;SHT31;73824;40.292;17.998;2024-02-26T11:25:42;19.15;62.32
83808;SHT31;73824;40.292;17.998;2024-02-26T11:28:18;18.77;62.70
83808;SHT31;73824;40.292;17.998;2024-02-26T11:30:47;18.87;61.88
83808;SHT31;73824;40.292;17.998;2024-02-26T11:33:14;19.57;60.91
83808;SHT31;73824;40.292;17.998;2024-02-26T11:35:40;20.04;59.68
83808;SHT31;73824;40.292;17.998;2024-02-26T11:38:06;19.45;60.70
83808;SHT31;73824;40.292;17.998;2024-02-26T11:40:33;20.59;57.62
83808;SHT31;73824;40.292;17.998;2024-02-26T11:43:04;21.41;54.96
83808;SHT31;73824;40.292;17.998;2024-02-26T11:48:16;19.42;59.35
83808;SHT31;73824;40.292;17.998;2024-02-26T11:50:46;19.60;60.11
83808;SHT31;73824;40.292;17.998;2024-02-26T11:53:28;20.83;57.26
83808;SHT31;73824;40.292;17.998;2024-02-26T11:56:21;20.97;56.26
83808;SHT31;73824;40.292;17.998;2024-02-26T12:01:40;20.21;56.32
83808;SHT31;73824;40.292;17.998;2024-02-26T12:04:21;20.04;57.29
83808;SHT31;73824;40.292;17.998;2024-02-26T12:06:52;20.66;56.05
83808;SHT31;73824;40.292;17.998;2024-02-26T12:09:37;20.57;56.41
83808;SHT31;73824;40.292;17.998;2024-02-26T12:12:10;20.56;55.84
83808;SHT31;73824;40.292;17.998;2024-02-26T12:14:39;20.90;55.92
83808;SHT31;73824;40.292;17.998;2024-02-26T12:17:07;21.23;54.22
83808;SHT31;73824;40.292;17.998;2024-02-26T12:19:35;21.07;55.18
83808;SHT31;73824;40.292;17.998;2024-02-26T12:22:01;21.00;55.43
83808;SHT31;73824;40.292;17.998;2024-02-26T12:24:26;20.53;56.98
83808;SHT31;73824;40.292;17.998;2024-02-26T12:26:52;20.84;55.33
83808;SHT31;73824;40.292;17.998;2024-02-26T12:29:17;20.60;56.24
83808;SHT31;73824;40.292;17.998;2024-02-26T12:31:43;20.18;57.20
83808;SHT31;73824;40.292;17.998;2024-02-26T12:34:09;19.39;58.69
83808;SHT31;73824;40.292;17.998;2024-02-26T12:36:35;19.15;59.72
83808;SHT31;73824;40.292;17.998;2024-02-26T12:39:02;19.59;58.53
83808;SHT31;73824;40.292;17.998;2024-02-26T12:41:28;19.05;60.09
83808;SHT31;73824;40.292;17.998;2024-02-26T12:43:55;18.92;60.20
83808;SHT31;73824;40.292;17.998;2024-02-26T12:46:21;18.94;61.20
83808;SHT31;73824;40.292;17.998;2024-02-26T12:48:47;19.16;60.43
83808;SHT31;73824;40.292;17.998;2024-02-26T12:51:14;18.88;60.56
83808;SHT31;73824;40.292;17.998;2024-02-26T12:53:41;18.58;61.70
83808;SHT31;73824;40.292;17.998;2024-02-26T12:56:10;18.51;61.86
83808;SHT31;73824;40.292;17.998;2024-02-26T12:58:38;18.91;61.77
83808;SHT31;73824;40.292;17.998;2024-02-26T13:01:05;18.48;62.50
83808;SHT31;73824;40.292;17.998;2024-02-26T13:03:32;18.25;61.32
83808;SHT31;73824;40.292;17.998;2024-02-26T13:05:58;18.29;61.72
83808;SHT31;73824;40.292;17.998;2024-02-26T13:08:24;18.23;61.37
83808;SHT31;73824;40.292;17.998;2024-02-26T13:10:49;18.53;61.13
83808;SHT31;73824;40.292;17.998;2024-02-26T13:13:17;18.34;60.36
83808;SHT31;73824;40.292;17.998;2024-02-26T13:15:44;18.47;60.59
83808;SHT31;73824;40.292;17.998;2024-02-26T13:18:13;18.25;61.60
83808;SHT31;73824;40.292;17.998;2024-02-26T13:20:40;18.16;62.54
83808;SHT31;73824;40.292;17.998;2024-02-26T13:23:12;18.40;61.64
83808;SHT31;73824;40.292;17.998;2024-02-26T13:25:38;18.25;61.42
83808;SHT31;73824;40.292;17.998;2024-02-26T13:28:14;18.06;62.00
83808;SHT31;73824;40.292;17.998;2024-02-26T13:30:41;18.30;61.44
83808;SHT31;73824;40.292;17.998;2024-02-26T13:33:13;18.10;61.28
83808;SHT31;73824;40.292;17.998;2024-02-26T13:35:39;18.36;61.14
83808;SHT31;73824;40.292;17.998;2024-02-26T13:38:05;18.23;61.81
83808;SHT31;73824;40.292;17.998;2024-02-26T13:40:34;18.26;60.97
83808;SHT31;73824;40.292;17.998;2024-02-26T13:43:00;18.08;61.43
83808;SHT31;73824;40.292;17.998;2024-02-26T13:45:26;18.32;61.15
83808;SHT31;73824;40.292;17.998;2024-02-26T13:47:51;18.34;61.08
83808;SHT31;73824;40.292;17.998;2024-02-26T13:50:17;18.23;61.49
83808;SHT31;73824;40.292;17.998;2024-02-26T13:52:47;18.57;61.00
83808;SHT31;73824;40.292;17.998;2024-02-26T13:55:12;18.64;59.80
83808;SHT31;73824;40.292;17.998;2024-02-26T13:57:39;18.58;59.34
83808;SHT31;73824;40.292;17.998;2024-02-26T14:00:06;18.51;60.31
83808;SHT31;73824;40.292;17.998;2024-02-26T14:02:32;18.78;57.84
83808;SHT31;73824;40.292;17.998;2024-02-26T14:05:02;18.57;60.16
83808;SHT31;73824;40.292;17.998;2024-02-26T14:07:29;18.46;59.41
83808;SHT31;73824;40.292;17.998;2024-02-26T14:09:55;18.37;60.01
83808;SHT31;73824;40.292;17.998;2024-02-26T14:12:20;18.40;59.80
83808;SHT31;73824;40.292;17.998;2024-02-26T14:14:46;18.34;60.95
83808;SHT31;73824;40.292;17.998;2024-02-26T14:17:14;18.44;60.27
83808;SHT31;73824;40.292;17.998;2024-02-26T14:19:41;18.67;59.10
83808;SHT31;73824;40.292;17.998;2024-02-26T14:22:12;18.41;59.19
83808;SHT31;73824;40.292;17.998;2024-02-26T14:24:41;18.17;59.52
83808;SHT31;73824;40.292;17.998;2024-02-26T14:27:11;18.03;61.02
83808;SHT31;73824;40.292;17.998;2024-02-26T14:29:41;18.41;60.48
83808;SHT31;73824;40.292;17.998;2024-02-26T14:32:08;18.61;59.57
83808;SHT31;73824;40.292;17.998;2024-02-26T14:34:34;18.68;58.83
83808;SHT31;73824;40.292;17.998;2024-02-26T14:36:59;18.75;58.23
83808;SHT31;73824;40.292;17.998;2024-02-26T14:39:25;18.75;58.09
83808;SHT31;73824;40.292;17.998;2024-02-26T14:41:50;18.83;58.88
83808;SHT31;73824;40.292;17.998;2024-02-26T14:44:16;18.78;59.23
83808;SHT31;73824;40.292;17.998;2024-02-26T14:46:42;18.53;58.63
83808;SHT31;73824;40.292;17.998;2024-02-26T14:49:07;18.50;58.76
83808;SHT31;73824;40.292;17.998;2024-02-26T14:51:33;18.36;58.93
83808;SHT31;73824;40.292;17.998;2024-02-26T14:53:59;18.41;59.57
83808;SHT31;73824;40.292;17.998;2024-02-26T14:56:27;18.44;59.66
83808;SHT31;73824;40.292;17.998;2024-02-26T14:58:52;18.44;59.03
83808;SHT31;73824;40.292;17.998;2024-02-26T15:01:18;18.44;59.24
83808;SHT31;73824;40.292;17.998;2024-02-26T15:03:43;18.37;59.26
83808;SHT31;73824;40.292;17.998;2024-02-26T15:06:09;18.27;60.12
83808;SHT31;73824;40.292;17.998;2024-02-26T15:08:34;18.17;60.28
83808;SHT31;73824;40.292;17.998;2024-02-26T15:11:03;18.10;60.25
83808;SHT31;73824;40.292;17.998;2024-02-26T15:13:29;18.14;61.07
83808;SHT31;73824;40.292;17.998;2024-02-26T15:15:54;18.10;60.94